createdAt,value
2022-11-05T00:00:55.190Z,9.71
2022-11-05T00:03:54.927Z,9.67
2022-11-05T00:06:49.493Z,10.18
2022-11-05T00:09:36.270Z,8.62
2022-11-05T00:12:33.332Z,9.34
2022-11-05T00:15:33.444Z,9.65
2022-11-05T00:18:09.334Z,10.10
2022-11-05T00:20:48.298Z,9.96
2022-11-05T00:23:40.396Z,9.97
2022-11-05T00:26:14.397Z,10.12
2022-11-05T00:28:48.449Z,10.14
2022-11-05T00:31:31.315Z,10.84
2022-11-05T00:35:07.399Z,9.72
2022-11-05T00:37:48.717Z,10.27
2022-11-05T00:40:24.807Z,10.41
2022-11-05T00:43:30.517Z,10.82
2022-11-05T00:46:05.419Z,10.64
2022-11-05T00:49:15.931Z,10.18
2022-11-05T00:52:12.269Z,10.42
2022-11-05T00:54:46.626Z,10.38
2022-11-05T00:57:18.063Z,10.43
2022-11-05T00:59:48.549Z,10.54
2022-11-05T01:02:23.051Z,11.16
2022-11-05T01:04:55.392Z,11.17
2022-11-05T01:07:39.269Z,10.83
2022-11-05T01:10:11.749Z,10.95
2022-11-05T01:12:47.261Z,10.96
2022-11-05T01:15:19.715Z,10.35
2022-11-05T01:17:53.773Z,10.57
2022-11-05T01:20:38.662Z,11.08
2022-11-05T01:23:13.274Z,10.65
2022-11-05T01:25:47.986Z,10.81
2022-11-05T01:28:20.803Z,11.08
2022-11-05T01:31:04.707Z,10.71
2022-11-05T01:33:36.503Z,10.60
2022-11-05T01:36:11.614Z,10.33
2022-11-05T01:38:44.538Z,10.38
2022-11-05T01:41:16.533Z,10.14
2022-11-05T01:44:00.999Z,10.16
2022-11-05T01:46:47.501Z,10.41
2022-11-05T01:49:35.515Z,10.54
2022-11-05T01:52:15.240Z,10.16
2022-11-05T01:54:52.027Z,10.62
2022-11-05T01:57:35.161Z,10.71
2022-11-05T02:00:08.464Z,10.60
2022-11-05T02:02:50.861Z,11.01
2022-11-05T02:05:21.787Z,10.62
2022-11-05T02:07:59.841Z,10.73
2022-11-05T02:10:37.034Z,10.35
2022-11-05T02:17:46.973Z,10.29
2022-11-05T02:20:56.933Z,9.93
2022-11-05T02:24:14.859Z,10.30
2022-11-05T02:27:07.850Z,10.44
2022-11-05T02:30:15.566Z,9.92
2022-11-05T02:33:13.093Z,10.52
2022-11-05T02:37:04.059Z,10.16
2022-11-05T02:40:11.119Z,10.16
2022-11-05T02:44:12.483Z,10.27
2022-11-05T02:47:36.937Z,10.26
2022-11-05T02:50:54.860Z,10.31
2022-11-05T02:53:40.150Z,10.10
2022-11-05T02:56:40.337Z,10.25
2022-11-05T02:59:12.686Z,10.58
2022-11-05T03:01:45.146Z,10.71
2022-11-05T03:04:20.469Z,10.29
2022-11-05T03:07:33.161Z,10.58
2022-11-05T03:10:19.979Z,10.67
2022-11-05T03:13:20.230Z,10.12
2022-11-05T03:16:07.658Z,10.12
2022-11-05T03:18:50.878Z,10.90
2022-11-05T03:21:48.895Z,10.58
2022-11-05T03:24:34.479Z,10.37
2022-11-05T03:27:16.204Z,10.39
2022-11-05T03:30:04.628Z,10.53
2022-11-05T03:32:42.002Z,10.64
2022-11-05T03:35:23.630Z,10.48
2022-11-05T03:38:16.790Z,10.83
2022-11-05T03:40:54.430Z,10.78
2022-11-05T03:43:37.167Z,10.88
2022-11-05T03:46:31.765Z,10.58
2022-11-05T03:49:11.377Z,11.02
2022-11-05T03:52:18.996Z,10.64
2022-11-05T03:54:51.423Z,10.74
2022-11-05T03:57:30.785Z,10.63
2022-11-05T04:00:04.129Z,11.23
2022-11-05T04:02:44.690Z,11.12
2022-11-05T04:05:20.956Z,10.86
2022-11-05T04:08:24.157Z,10.79
2022-11-05T04:11:16.727Z,10.93
2022-11-05T04:14:12.901Z,10.58
2022-11-05T04:17:08.908Z,10.63
2022-11-05T04:20:10.645Z,11.12
2022-11-05T04:23:00.193Z,11.15
2022-11-05T04:25:40.295Z,10.90
2022-11-05T04:31:44.200Z,10.75
2022-11-05T04:34:17.076Z,11.07
2022-11-05T04:36:53.028Z,11.16
2022-11-05T04:39:30.165Z,11.38
2022-11-05T04:42:06.961Z,11.16
2022-11-05T04:44:36.889Z,11.23
2022-11-05T04:47:21.454Z,11.34
2022-11-05T04:50:47.160Z,11.15
2022-11-05T04:53:19.992Z,11.39
2022-11-05T04:56:11.562Z,11.52
2022-11-05T04:58:54.195Z,11.76
2022-11-05T05:01:35.662Z,11.37
2022-11-05T05:04:07.727Z,11.51
2022-11-05T05:06:48.324Z,11.55
2022-11-05T05:09:36.570Z,11.41
2022-11-05T05:12:15.747Z,11.72
2022-11-05T05:14:52.948Z,11.77
2022-11-05T05:17:33.026Z,11.62
2022-11-05T05:20:44.035Z,11.98
2022-11-05T05:23:16.982Z,11.08
2022-11-05T05:26:20.501Z,11.37
2022-11-05T05:29:00.848Z,11.49
2022-11-05T05:31:36.276Z,11.58
2022-11-05T05:34:10.680Z,11.86
2022-11-05T05:36:43.027Z,11.89
2022-11-05T05:39:14.774Z,11.44
2022-11-05T05:41:45.246Z,11.98
2022-11-05T05:44:18.382Z,11.44
2022-11-05T05:46:48.056Z,12.03
2022-11-05T05:49:23.567Z,11.95
2022-11-05T05:52:01.102Z,11.53
2022-11-05T05:54:35.991Z,11.23
2022-11-05T05:57:09.079Z,11.05
2022-11-05T05:59:41.019Z,11.60
2022-11-05T06:02:46.639Z,11.81
2022-11-05T06:06:48.663Z,11.61
2022-11-05T06:09:48.401Z,11.63
2022-11-05T06:12:20.876Z,11.56
2022-11-05T06:14:56.847Z,12.01
2022-11-05T06:17:35.476Z,11.86
2022-11-05T06:20:10.992Z,12.32
2022-11-05T06:22:43.499Z,11.78
2022-11-05T06:25:14.274Z,12.23
2022-11-05T06:27:46.538Z,11.93
2022-11-05T06:30:39.253Z,11.69
2022-11-05T06:33:41.903Z,11.90
2022-11-05T06:36:20.036Z,12.11
2022-11-05T06:38:53.012Z,11.50
2022-11-05T06:41:24.917Z,12.05
2022-11-05T06:44:07.911Z,12.28
2022-11-05T06:46:48.378Z,12.02
2022-11-05T06:49:24.558Z,11.90
2022-11-05T06:51:59.212Z,12.24
2022-11-05T06:54:32.557Z,12.46
2022-11-05T06:57:08.201Z,12.35
2022-11-05T06:59:43.998Z,12.42
2022-11-05T07:02:20.202Z,12.90
2022-11-05T07:04:51.909Z,12.23
2022-11-05T07:07:38.997Z,12.75
2022-11-05T07:10:19.332Z,12.03
2022-11-05T07:12:55.483Z,12.46
2022-11-05T07:15:35.637Z,12.65
2022-11-05T07:18:11.117Z,12.00
2022-11-05T07:20:44.249Z,10.94
2022-11-05T07:23:19.147Z,12.07
2022-11-05T07:25:51.605Z,11.63
2022-11-05T07:28:24.643Z,12.34
2022-11-05T07:31:02.834Z,12.44
2022-11-05T07:33:36.749Z,12.19
2022-11-05T07:36:08.551Z,12.55
2022-11-05T07:38:40.118Z,12.38
2022-11-05T07:44:08.624Z,11.81
2022-11-05T07:46:40.764Z,11.83
2022-11-05T07:49:13.084Z,12.00
2022-11-05T07:51:47.598Z,11.79
2022-11-05T07:54:17.078Z,12.25
2022-11-05T07:56:51.150Z,11.86
2022-11-05T07:59:24.262Z,12.25
2022-11-05T08:02:03.087Z,12.23
2022-11-05T08:04:35.958Z,12.48
2022-11-05T08:07:08.620Z,11.96
2022-11-05T08:09:40.161Z,11.94
2022-11-05T08:12:11.237Z,12.61
2022-11-05T08:14:42.714Z,12.27
2022-11-05T08:17:18.552Z,11.50
2022-11-05T08:19:52.814Z,11.66
2022-11-05T08:22:24.649Z,11.34
2022-11-05T08:25:06.632Z,11.53
2022-11-05T08:27:40.701Z,11.58
2022-11-05T08:30:19.233Z,11.33
2022-11-05T08:32:48.780Z,11.60
2022-11-05T08:35:26.051Z,11.80
2022-11-05T08:38:10.825Z,12.06
2022-11-05T08:40:44.267Z,11.35
2022-11-05T08:43:19.086Z,11.61
2022-11-05T08:46:04.164Z,11.97
2022-11-05T08:48:36.289Z,11.69
2022-11-05T08:51:14.987Z,11.83
2022-11-05T08:53:45.992Z,12.45
2022-11-05T08:56:18.198Z,12.41
2022-11-05T08:58:48.138Z,12.26
2022-11-05T09:01:24.128Z,12.68
2022-11-05T09:04:20.117Z,12.39
2022-11-05T09:06:55.093Z,11.85
2022-11-05T09:09:40.778Z,12.50
2022-11-05T09:12:39.502Z,12.15
2022-11-05T09:16:50.209Z,11.82
2022-11-05T09:19:23.883Z,11.98
2022-11-05T09:22:04.821Z,12.09
2022-11-05T09:25:04.824Z,12.04
2022-11-05T09:27:41.159Z,11.97
2022-11-05T09:30:15.182Z,12.01
2022-11-05T09:32:47.056Z,12.62
2022-11-05T09:35:24.938Z,12.41
2022-11-05T09:38:19.047Z,13.01
2022-11-05T09:41:15.688Z,12.71
2022-11-05T09:44:24.392Z,12.24
2022-11-05T09:47:42.407Z,11.70
2022-11-05T09:50:44.265Z,12.60
2022-11-05T09:53:39.944Z,12.46
2022-11-05T09:57:01.876Z,12.25
2022-11-05T09:59:44.319Z,11.69
2022-11-05T10:28:00.690Z,12.04
2022-11-05T10:30:32.630Z,12.22
2022-11-05T10:33:07.430Z,12.45
2022-11-05T10:35:55.051Z,12.46
2022-11-05T10:38:30.647Z,12.62
2022-11-05T10:41:16.183Z,12.61
2022-11-05T10:43:54.183Z,11.92
2022-11-05T10:46:38.207Z,12.18
2022-11-05T10:49:46.423Z,12.06
2022-11-05T10:52:38.487Z,11.88
2022-11-05T10:55:24.406Z,12.65
2022-11-05T11:02:55.098Z,10.74
2022-11-05T11:05:36.745Z,11.04
2022-11-05T11:08:28.872Z,11.41
2022-11-05T11:11:06.359Z,12.00
2022-11-05T11:14:04.385Z,11.33
2022-11-05T11:16:44.519Z,11.56
2022-11-05T11:19:36.095Z,11.49
2022-11-05T11:22:12.009Z,11.56
2022-11-05T11:24:52.284Z,11.44
2022-11-05T11:27:32.786Z,12.41
2022-11-05T11:30:06.450Z,12.28
2022-11-05T11:37:20.334Z,11.92
2022-11-05T11:40:02.995Z,12.06
2022-11-05T11:42:43.060Z,12.04
2022-11-05T11:45:52.628Z,11.86
2022-11-05T11:48:36.324Z,11.88
2022-11-05T11:51:49.959Z,11.06
2022-11-05T11:54:29.111Z,11.53
2022-11-05T11:57:02.092Z,12.28
2022-11-05T12:00:42.599Z,12.10
2022-11-05T12:03:24.040Z,11.85
2022-11-05T12:06:36.184Z,12.21
2022-11-05T12:09:25.665Z,12.00
2022-11-05T12:12:20.913Z,12.37
2022-11-05T12:15:52.561Z,11.81
2022-11-05T12:23:37.184Z,12.32
2022-11-05T12:26:48.845Z,12.17
2022-11-05T12:30:18.356Z,12.22
2022-11-05T12:34:20.344Z,12.27
2022-11-05T13:23:25.232Z,10.78
2022-11-05T13:28:14.840Z,12.20
2022-11-05T14:03:15.247Z,10.73
2022-11-05T14:06:55.128Z,10.57
2022-11-05T14:10:51.997Z,11.12
2022-11-05T14:20:28.073Z,9.95
2022-11-05T14:25:49.716Z,9.05
2022-11-05T15:08:07.768Z,10.83
2022-11-05T15:21:55.791Z,10.77
2022-11-05T15:26:23.516Z,10.36
2022-11-05T16:30:52.173Z,8.89
2022-11-05T16:44:20.591Z,7.72
2022-11-05T16:48:11.827Z,9.21
2022-11-05T16:58:30.891Z,8.22
2022-11-05T17:03:25.983Z,7.47
2022-11-05T17:19:58.722Z,8.78
2022-11-05T17:26:59.392Z,9.03
2022-11-05T17:35:13.584Z,8.39
2022-11-05T17:58:21.418Z,9.12
2022-11-05T18:53:22.615Z,8.47
2022-11-05T19:01:44.155Z,8.31
2022-11-05T19:43:26.620Z,7.71
2022-11-05T19:48:25.687Z,7.55
2022-11-05T20:32:16.872Z,8.32
2022-11-05T20:40:04.716Z,8.51
2022-11-05T20:49:48.508Z,7.87
2022-11-05T20:53:16.053Z,8.60
2022-11-05T20:56:52.893Z,8.23
2022-11-05T21:07:03.141Z,7.96
2022-11-05T21:18:24.288Z,8.23
2022-11-05T21:22:12.814Z,7.98
2022-11-05T21:41:03.365Z,7.60
2022-11-05T22:05:32.696Z,8.19
2022-11-05T22:29:58.271Z,8.49
2022-11-05T22:35:01.323Z,8.71
2022-11-05T22:40:14.666Z,8.02
2022-11-05T22:50:07.991Z,8.71
2022-11-05T23:04:55.221Z,9.35
2022-11-05T23:17:51.000Z,8.15
2022-11-05T23:21:57.642Z,8.53
2022-11-05T23:26:08.938Z,9.06
2022-11-05T23:53:57.187Z,9.88
2022-11-05T23:57:13.507Z,9.59
